createdAt,value
2022-07-28T00:00:08.238Z,23.33
2022-07-28T00:02:36.234Z,23.22
2022-07-28T00:05:05.139Z,23.31
2022-07-28T00:07:32.243Z,23.22
2022-07-28T00:10:00.849Z,23.22
2022-07-28T00:12:28.240Z,23.24
2022-07-28T00:14:55.225Z,23.26
2022-07-28T00:17:22.187Z,23.31
2022-07-28T00:19:49.243Z,23.32
2022-07-28T00:22:16.319Z,23.44
2022-07-28T00:24:43.319Z,23.41
2022-07-28T00:27:10.278Z,23.46
2022-07-28T00:29:41.060Z,23.42
2022-07-28T00:32:17.721Z,23.42
2022-07-28T00:34:45.166Z,23.39
2022-07-28T00:37:14.526Z,23.32
2022-07-28T00:39:42.451Z,23.37
2022-07-28T00:42:09.745Z,23.38
2022-07-28T00:44:39.205Z,23.37
2022-07-28T00:47:06.866Z,23.35
2022-07-28T00:49:33.987Z,23.40
2022-07-28T00:52:01.772Z,23.49
2022-07-28T00:54:28.711Z,23.53
2022-07-28T00:56:55.736Z,23.42
2022-07-28T00:59:22.874Z,23.50
2022-07-28T01:01:50.172Z,23.55
2022-07-28T01:04:21.832Z,23.59
2022-07-28T01:07:12.890Z,23.53
2022-07-28T01:09:52.816Z,23.67
2022-07-28T01:12:53.455Z,23.59
2022-07-28T01:15:40.999Z,23.60
2022-07-28T01:18:17.060Z,23.45
2022-07-28T01:21:09.220Z,23.55
2022-07-28T01:23:41.960Z,23.53
2022-07-28T01:26:27.007Z,23.59
2022-07-28T01:29:03.520Z,23.59
2022-07-28T01:32:01.583Z,23.56
2022-07-28T01:34:33.604Z,23.37
2022-07-28T01:37:11.775Z,23.37
2022-07-28T01:39:43.395Z,23.39
2022-07-28T01:42:13.771Z,23.35
2022-07-28T01:44:46.552Z,23.42
2022-07-28T01:47:15.203Z,23.17
2022-07-28T01:49:45.473Z,22.96
2022-07-28T01:52:13.857Z,23.00
2022-07-28T01:54:45.342Z,23.00
2022-07-28T01:57:14.792Z,23.01
2022-07-28T01:59:44.171Z,23.08
2022-07-28T02:02:12.831Z,22.85
2022-07-28T02:04:42.278Z,22.88
2022-07-28T02:07:11.478Z,22.83
2022-07-28T02:09:40.750Z,22.90
2022-07-28T02:12:09.266Z,22.95
2022-07-28T02:14:37.263Z,23.03
2022-07-28T02:17:11.299Z,23.01
2022-07-28T02:19:40.922Z,23.06
2022-07-28T02:22:09.111Z,23.01
2022-07-28T02:24:37.491Z,23.04
2022-07-28T02:27:19.594Z,23.10
2022-07-28T02:29:51.700Z,23.21
2022-07-28T02:32:45.159Z,23.22
2022-07-28T02:35:31.982Z,22.97
2022-07-28T02:38:06.742Z,22.98
2022-07-28T02:40:36.587Z,23.22
2022-07-28T02:43:07.341Z,23.15
2022-07-28T02:45:37.538Z,23.15
2022-07-28T02:48:10.941Z,23.27
2022-07-28T02:50:41.152Z,23.09
2022-07-28T02:53:14.809Z,23.12
2022-07-28T02:55:46.457Z,23.25
2022-07-28T02:58:15.895Z,23.30
2022-07-28T03:00:43.933Z,23.23
2022-07-28T03:03:11.559Z,23.26
2022-07-28T03:05:40.720Z,23.32
2022-07-28T03:08:08.425Z,23.19
2022-07-28T03:10:35.489Z,23.35
2022-07-28T03:13:04.412Z,23.27
2022-07-28T03:15:32.283Z,23.31
2022-07-28T03:18:04.285Z,23.17
2022-07-28T03:20:31.562Z,23.23
2022-07-28T03:22:59.439Z,23.17
2022-07-28T03:25:43.430Z,23.16
2022-07-28T03:28:15.218Z,23.06
2022-07-28T03:30:45.465Z,22.92
2022-07-28T03:33:12.848Z,22.93
2022-07-28T03:35:45.114Z,23.07
2022-07-28T03:38:17.875Z,22.91
2022-07-28T03:40:47.105Z,23.05
2022-07-28T03:43:16.821Z,23.22
2022-07-28T03:45:46.862Z,23.35
2022-07-28T03:48:15.208Z,23.30
2022-07-28T03:50:42.992Z,23.46
2022-07-28T03:53:18.194Z,23.45
2022-07-28T03:55:50.706Z,23.51
2022-07-28T03:58:19.390Z,23.46
2022-07-28T04:00:47.047Z,23.58
2022-07-28T04:03:36.310Z,23.68
2022-07-28T04:06:03.086Z,23.67
2022-07-28T04:08:30.035Z,23.62
2022-07-28T04:10:57.084Z,23.72
2022-07-28T04:13:24.068Z,23.78
2022-07-28T04:15:50.978Z,23.76
2022-07-28T04:18:18.966Z,23.86
2022-07-28T04:20:45.960Z,23.92
2022-07-28T04:23:12.926Z,23.76
2022-07-28T04:25:40.169Z,23.92
2022-07-28T04:28:07.165Z,24.00
2022-07-28T04:30:34.396Z,24.06
2022-07-28T04:33:07.200Z,24.04
2022-07-28T04:35:35.049Z,23.99
2022-07-28T04:38:02.200Z,24.21
2022-07-28T04:40:29.173Z,24.22
2022-07-28T04:42:56.319Z,24.39
2022-07-28T04:45:23.526Z,24.36
2022-07-28T04:47:51.938Z,24.42
2022-07-28T04:50:21.455Z,24.47
2022-07-28T04:52:57.790Z,24.60
2022-07-28T04:55:25.101Z,24.74
2022-07-28T04:57:52.212Z,24.80
2022-07-28T05:00:20.180Z,24.69
2022-07-28T05:02:51.439Z,24.80
2022-07-28T05:05:18.770Z,24.90
2022-07-28T05:07:45.813Z,24.95
2022-07-28T05:10:13.010Z,24.85
2022-07-28T05:12:40.208Z,24.84
2022-07-28T05:15:08.127Z,24.99
2022-07-28T05:17:35.586Z,24.99
2022-07-28T05:20:03.342Z,25.18
2022-07-28T05:22:48.269Z,25.33
2022-07-28T05:25:19.720Z,25.40
2022-07-28T05:27:47.712Z,25.44
2022-07-28T05:30:15.749Z,25.46
2022-07-28T05:32:43.299Z,25.55
2022-07-28T05:35:10.347Z,25.53
2022-07-28T05:37:37.905Z,25.60
2022-07-28T05:40:10.502Z,25.78
2022-07-28T05:42:37.570Z,25.65
2022-07-28T05:45:15.799Z,25.79
2022-07-28T05:47:49.111Z,25.81
2022-07-28T05:50:17.754Z,25.85
2022-07-28T05:52:46.195Z,25.87
2022-07-28T05:55:13.509Z,25.92
2022-07-28T05:57:41.453Z,26.05
2022-07-28T06:00:13.847Z,26.19
2022-07-28T06:02:42.687Z,26.01
2022-07-28T06:05:10.220Z,25.99
2022-07-28T06:07:43.110Z,26.13
2022-07-28T06:10:13.531Z,26.32
2022-07-28T06:12:46.913Z,26.36
2022-07-28T06:15:16.660Z,26.41
2022-07-28T06:17:43.999Z,26.50
2022-07-28T06:20:12.526Z,26.49
2022-07-28T06:22:46.629Z,26.69
2022-07-28T06:25:19.149Z,26.73
2022-07-28T06:27:47.634Z,26.68
2022-07-28T06:30:15.683Z,26.77
2022-07-28T06:32:42.847Z,26.75
2022-07-28T06:35:09.981Z,26.66
2022-07-28T06:37:37.018Z,26.67
2022-07-28T06:40:06.262Z,26.72
2022-07-28T06:42:33.389Z,26.88
2022-07-28T06:45:00.406Z,26.86
2022-07-28T06:47:27.521Z,26.95
2022-07-28T06:49:54.430Z,26.93
2022-07-28T06:52:22.435Z,26.99
2022-07-28T06:54:52.261Z,27.14
2022-07-28T06:57:21.310Z,27.31
2022-07-28T06:59:49.609Z,27.48
2022-07-28T07:02:18.036Z,27.40
2022-07-28T07:04:45.698Z,27.42
2022-07-28T07:07:17.095Z,27.32
2022-07-28T07:09:44.731Z,27.36
2022-07-28T07:12:11.725Z,27.44
2022-07-28T07:14:38.683Z,27.58
2022-07-28T07:17:05.631Z,27.75
2022-07-28T07:19:32.688Z,27.73
2022-07-28T07:21:59.743Z,27.51
2022-07-28T07:24:26.671Z,27.83
2022-07-28T07:26:53.624Z,27.87
2022-07-28T07:29:22.393Z,27.88
2022-07-28T07:31:52.902Z,27.85
2022-07-28T07:34:20.555Z,28.09
2022-07-28T07:36:47.460Z,28.13
2022-07-28T07:39:14.352Z,28.37
2022-07-28T07:41:41.314Z,28.30
2022-07-28T07:44:09.970Z,28.35
2022-07-28T07:46:38.697Z,28.42
2022-07-28T07:49:06.127Z,28.35
2022-07-28T07:51:34.850Z,28.48
2022-07-28T07:54:01.783Z,28.33
2022-07-28T07:56:28.809Z,28.48
2022-07-28T07:58:57.226Z,28.44
2022-07-28T08:01:25.017Z,28.55
2022-07-28T08:03:52.069Z,28.60
2022-07-28T08:06:26.607Z,28.62
2022-07-28T08:08:55.081Z,28.66
2022-07-28T08:11:22.548Z,28.70
2022-07-28T08:13:49.959Z,28.85
2022-07-28T08:16:17.002Z,28.75
2022-07-28T08:18:45.006Z,28.73
2022-07-28T08:21:13.256Z,28.79
2022-07-28T08:23:40.419Z,28.69
2022-07-28T08:26:08.121Z,28.89
2022-07-28T08:28:35.223Z,28.98
2022-07-28T08:31:02.349Z,29.23
2022-07-28T08:33:30.155Z,29.19
2022-07-28T08:35:57.058Z,29.16
2022-07-28T08:38:24.038Z,29.33
2022-07-28T08:40:53.552Z,29.37
2022-07-28T08:43:32.516Z,29.46
2022-07-28T08:46:01.769Z,29.46
2022-07-28T08:48:31.907Z,29.40
2022-07-28T08:51:09.473Z,29.54
2022-07-28T08:53:37.978Z,29.56
2022-07-28T08:56:06.204Z,29.43
2022-07-28T08:58:35.252Z,29.37
2022-07-28T09:01:02.955Z,29.54
2022-07-28T09:03:30.407Z,29.81
2022-07-28T09:05:57.705Z,29.84
2022-07-28T09:08:25.718Z,29.88
2022-07-28T09:10:53.095Z,30.04
2022-07-28T09:13:20.608Z,29.86
2022-07-28T09:15:47.953Z,29.99
2022-07-28T09:18:16.707Z,30.20
2022-07-28T09:20:45.401Z,30.15
2022-07-28T09:23:43.401Z,30.03
2022-07-28T09:26:12.012Z,29.97
2022-07-28T09:28:58.998Z,29.88
2022-07-28T09:31:27.729Z,29.85
2022-07-28T09:33:56.448Z,29.83
2022-07-28T09:36:24.129Z,30.02
2022-07-28T09:38:51.775Z,29.87
2022-07-28T09:41:21.821Z,29.72
2022-07-28T09:43:54.793Z,30.06
2022-07-28T10:17:34.591Z,29.08
2022-07-28T10:20:04.847Z,29.16
2022-07-28T10:22:33.928Z,29.58
2022-07-28T10:25:15.229Z,29.85
2022-07-28T10:27:43.237Z,29.99
2022-07-28T10:30:11.527Z,30.19
2022-07-28T10:32:45.947Z,30.29
2022-07-28T10:35:15.436Z,30.46
2022-07-28T10:38:03.008Z,30.38
2022-07-28T10:40:33.118Z,29.93
2022-07-28T10:43:01.041Z,30.28
2022-07-28T10:45:47.941Z,30.45
2022-07-28T10:48:15.620Z,30.42
2022-07-28T10:50:44.425Z,30.46
2022-07-28T10:53:18.899Z,30.40
2022-07-28T10:56:10.503Z,30.55
2022-07-28T10:58:51.020Z,30.43
2022-07-28T11:01:53.139Z,30.20
2022-07-28T11:04:49.066Z,30.49
2022-07-28T11:07:17.733Z,30.54
2022-07-28T11:09:49.488Z,30.58
2022-07-28T11:12:49.874Z,30.56
2022-07-28T11:15:37.985Z,30.46
2022-07-28T11:18:10.262Z,30.42
2022-07-28T11:20:52.872Z,30.65
2022-07-28T11:23:56.276Z,30.63
2022-07-28T11:26:27.729Z,30.69
2022-07-28T11:28:57.524Z,30.85
2022-07-28T11:31:46.354Z,30.87
2022-07-28T11:34:17.290Z,30.85
2022-07-28T11:37:06.452Z,30.95
2022-07-28T11:39:43.313Z,31.08
2022-07-28T11:42:43.299Z,31.10
2022-07-28T11:45:35.918Z,31.09
2022-07-28T11:48:16.043Z,30.92
2022-07-28T11:50:44.033Z,31.01
2022-07-28T11:53:11.111Z,31.15
2022-07-28T11:55:55.824Z,31.17
2022-07-28T11:58:25.938Z,30.89
2022-07-28T12:01:13.319Z,30.96
2022-07-28T12:03:55.613Z,30.98
2022-07-28T12:06:26.315Z,31.19
2022-07-28T12:08:58.351Z,31.39
2022-07-28T12:11:27.404Z,31.30
2022-07-28T12:14:11.843Z,31.14
2022-07-28T12:16:41.213Z,31.33
2022-07-28T12:19:09.209Z,31.24
2022-07-28T12:21:49.238Z,31.27
2022-07-28T12:24:28.092Z,31.02
2022-07-28T12:26:55.543Z,31.06
2022-07-28T12:29:24.217Z,31.00
2022-07-28T12:32:05.156Z,30.79
2022-07-28T12:34:35.296Z,30.85
2022-07-28T12:37:09.832Z,31.15
2022-07-28T12:39:42.514Z,31.29
2022-07-28T12:42:11.716Z,31.74
2022-07-28T12:44:41.894Z,31.55
2022-07-28T12:47:12.377Z,31.91
2022-07-28T12:49:43.996Z,31.83
2022-07-28T12:52:22.831Z,31.73
2022-07-28T12:54:53.346Z,31.68
2022-07-28T12:57:51.631Z,31.80
2022-07-28T13:00:24.884Z,32.13
2022-07-28T13:02:55.979Z,32.06
2022-07-28T13:05:56.624Z,32.25
2022-07-28T13:08:27.373Z,32.37
2022-07-28T13:10:58.955Z,32.39
2022-07-28T13:13:26.975Z,32.46
2022-07-28T13:16:12.179Z,32.29
2022-07-28T13:19:04.466Z,31.62
2022-07-28T13:21:58.403Z,31.63
2022-07-28T13:24:27.909Z,31.40
2022-07-28T13:26:55.756Z,31.30
2022-07-28T13:29:23.896Z,31.04
2022-07-28T13:31:52.531Z,31.01
2022-07-28T13:34:19.726Z,30.92
2022-07-28T13:36:46.743Z,30.79
2022-07-28T13:39:16.340Z,30.68
2022-07-28T13:41:57.501Z,30.48
2022-07-28T13:44:29.969Z,30.53
2022-07-28T13:46:59.035Z,30.71
2022-07-28T13:49:27.644Z,30.70
2022-07-28T13:51:55.374Z,31.43
2022-07-28T13:54:22.478Z,31.80
2022-07-28T13:57:10.811Z,32.22
2022-07-28T13:59:38.074Z,32.32
2022-07-28T14:02:06.051Z,32.94
2022-07-28T14:04:42.290Z,32.10
2022-07-28T14:07:13.211Z,31.31
2022-07-28T14:09:40.177Z,30.51
2022-07-28T14:12:07.820Z,30.03
2022-07-28T14:14:37.223Z,29.89
2022-07-28T14:17:19.646Z,29.49
2022-07-28T14:19:51.110Z,29.26
2022-07-28T14:22:18.020Z,28.88
2022-07-28T14:24:44.992Z,28.75
2022-07-28T14:27:11.997Z,28.73
2022-07-28T14:29:39.783Z,28.72
2022-07-28T14:32:07.375Z,28.52
2022-07-28T14:34:34.838Z,28.52
2022-07-28T14:37:05.586Z,28.42
2022-07-28T14:39:37.139Z,28.34
2022-07-28T14:42:05.159Z,28.35
2022-07-28T14:44:32.161Z,28.17
2022-07-28T14:46:59.316Z,28.20
2022-07-28T14:49:26.400Z,28.10
2022-07-28T14:51:53.475Z,27.87
2022-07-28T14:54:20.541Z,27.65
2022-07-28T14:56:47.582Z,27.58
2022-07-28T14:59:14.513Z,27.42
2022-07-28T15:01:41.551Z,27.53
2022-07-28T15:04:10.281Z,27.67
2022-07-28T15:06:37.281Z,27.51
2022-07-28T15:09:04.384Z,27.54
2022-07-28T15:11:31.362Z,27.50
2022-07-28T15:13:59.237Z,27.54
2022-07-28T15:16:26.248Z,27.54
2022-07-28T15:18:53.442Z,27.56
2022-07-28T15:21:20.591Z,27.43
2022-07-28T15:23:48.583Z,27.48
2022-07-28T15:26:15.734Z,27.36
2022-07-28T15:28:42.837Z,27.41
2022-07-28T15:31:10.201Z,27.38
2022-07-28T15:33:45.358Z,27.16
2022-07-28T15:36:14.964Z,27.39
2022-07-28T15:38:42.058Z,27.26
2022-07-28T15:41:15.366Z,27.21
2022-07-28T15:43:42.670Z,27.17
2022-07-28T15:46:11.913Z,27.27
2022-07-28T15:48:44.239Z,26.83
2022-07-28T15:51:11.559Z,26.93
2022-07-28T15:53:38.760Z,26.77
2022-07-28T15:56:06.052Z,26.87
2022-07-28T15:58:33.175Z,26.56
2022-07-28T16:01:02.013Z,26.80
2022-07-28T16:03:30.524Z,26.73
2022-07-28T16:05:58.904Z,26.70
2022-07-28T16:08:26.994Z,26.76
2022-07-28T16:10:54.837Z,26.73
2022-07-28T16:13:31.415Z,26.43
2022-07-28T16:16:09.180Z,26.52
2022-07-28T16:18:37.810Z,26.44
2022-07-28T16:21:05.407Z,26.51
2022-07-28T16:23:32.668Z,26.37
2022-07-28T16:25:59.695Z,26.47
2022-07-28T16:28:26.824Z,26.33
2022-07-28T16:30:55.099Z,26.26
2022-07-28T16:33:22.055Z,26.09
2022-07-28T16:35:49.406Z,26.21
2022-07-28T16:38:19.351Z,26.23
2022-07-28T16:40:46.443Z,26.25
2022-07-28T16:43:13.480Z,26.15
2022-07-28T16:45:41.083Z,26.01
2022-07-28T16:48:08.233Z,26.04
2022-07-28T16:50:35.396Z,26.07
2022-07-28T16:53:05.128Z,26.15
2022-07-28T16:55:32.182Z,26.11
2022-07-28T16:57:59.203Z,26.09
2022-07-28T17:00:26.995Z,25.92
2022-07-28T17:02:53.913Z,25.98
2022-07-28T17:05:21.065Z,25.56
2022-07-28T17:07:48.075Z,25.38
2022-07-28T17:10:20.167Z,25.51
2022-07-28T17:12:49.725Z,25.57
2022-07-28T17:15:19.975Z,25.56
2022-07-28T17:17:51.048Z,25.53
2022-07-28T17:20:19.057Z,25.52
2022-07-28T17:22:46.091Z,25.00
2022-07-28T17:25:42.944Z,25.03
2022-07-28T17:28:00.608Z,24.97
2022-07-28T17:30:29.837Z,24.94
2022-07-28T17:32:59.286Z,25.01
2022-07-28T17:35:34.095Z,25.01
2022-07-28T17:38:03.510Z,24.97
2022-07-28T17:40:30.970Z,25.00
2022-07-28T17:42:57.948Z,24.90
2022-07-28T17:45:25.149Z,24.89
2022-07-28T17:47:52.531Z,24.80
2022-07-28T17:50:19.990Z,24.85
2022-07-28T17:52:48.384Z,24.46
2022-07-28T17:56:00.798Z,24.60
2022-07-28T17:58:33.929Z,24.50
2022-07-28T18:01:10.991Z,24.54
2022-07-28T18:03:58.756Z,24.39
2022-07-28T18:06:34.503Z,24.36
2022-07-28T18:09:12.167Z,24.25
2022-07-28T18:11:55.643Z,23.93
2022-07-28T18:14:30.258Z,24.00
2022-07-28T18:16:58.477Z,24.08
2022-07-28T18:19:26.736Z,23.96
2022-07-28T18:21:53.994Z,23.70
2022-07-28T18:24:22.548Z,23.78
2022-07-28T18:26:51.567Z,23.90
2022-07-28T18:29:21.018Z,23.91
2022-07-28T18:31:50.020Z,24.01
2022-07-28T18:34:17.405Z,24.14
2022-07-28T18:36:44.864Z,24.13
2022-07-28T18:39:12.559Z,24.02
2022-07-28T18:41:46.685Z,24.07
2022-07-28T18:44:16.841Z,24.13
2022-07-28T18:46:44.855Z,24.08
2022-07-28T18:49:12.257Z,24.10
2022-07-28T18:51:39.374Z,24.16
2022-07-28T18:54:11.845Z,24.13
2022-07-28T18:56:38.953Z,24.17
2022-07-28T18:59:05.996Z,23.97
2022-07-28T19:01:33.027Z,23.97
2022-07-28T19:04:00.282Z,24.00
2022-07-28T19:06:27.512Z,24.00
2022-07-28T19:08:54.614Z,24.00
2022-07-28T19:11:21.631Z,24.01
2022-07-28T19:13:48.934Z,23.88
2022-07-28T19:16:15.996Z,24.03
2022-07-28T19:18:42.950Z,24.09
2022-07-28T19:21:09.865Z,24.13
2022-07-28T19:23:36.921Z,24.06
2022-07-28T19:26:03.959Z,24.07
2022-07-28T19:28:31.005Z,24.09
2022-07-28T19:31:00.053Z,24.01
2022-07-28T19:33:37.279Z,24.09
2022-07-28T19:36:10.978Z,24.16
2022-07-28T19:38:38.013Z,24.11
2022-07-28T19:41:05.008Z,24.21
2022-07-28T19:43:31.970Z,24.00
2022-07-28T19:46:00.319Z,24.02
2022-07-28T19:48:27.690Z,23.97
2022-07-28T19:50:54.784Z,23.97
2022-07-28T19:53:28.041Z,24.04
2022-07-28T19:55:59.092Z,23.93
2022-07-28T19:58:26.140Z,23.88
2022-07-28T20:00:53.860Z,23.99
2022-07-28T20:04:02.054Z,24.08
2022-07-28T20:06:10.623Z,24.13
2022-07-28T20:08:37.966Z,24.12
2022-07-28T20:11:05.123Z,24.20
2022-07-28T20:13:32.193Z,24.15
2022-07-28T20:15:59.127Z,24.08
2022-07-28T20:18:26.123Z,24.08
2022-07-28T20:20:53.073Z,24.12
2022-07-28T20:23:20.089Z,24.15
2022-07-28T20:25:47.100Z,24.16
2022-07-28T20:28:14.165Z,24.21
2022-07-28T20:30:41.421Z,24.23
2022-07-28T20:33:08.508Z,24.19
2022-07-28T20:35:35.546Z,24.07
2022-07-28T20:38:03.559Z,24.02
2022-07-28T20:40:30.504Z,23.96
2022-07-28T20:42:57.523Z,23.92
2022-07-28T20:45:24.509Z,23.83
2022-07-28T20:47:51.814Z,23.89
2022-07-28T20:50:20.589Z,23.85
2022-07-28T20:52:48.778Z,23.91
2022-07-28T20:55:15.862Z,23.82
2022-07-28T20:57:42.847Z,23.99
2022-07-28T21:00:21.087Z,23.96
2022-07-28T21:02:48.255Z,23.99
2022-07-28T21:05:26.887Z,24.03
2022-07-28T21:08:06.095Z,24.07
2022-07-28T21:10:33.593Z,23.79
2022-07-28T21:13:00.758Z,23.79
2022-07-28T21:15:27.931Z,23.46
2022-07-28T21:17:57.098Z,23.33
2022-07-28T21:20:24.585Z,23.32
2022-07-28T21:22:51.634Z,23.09
2022-07-28T21:25:18.937Z,22.71
2022-07-28T21:28:04.342Z,22.41
2022-07-28T21:30:31.445Z,22.30
2022-07-28T21:32:58.489Z,21.83
2022-07-28T21:35:25.817Z,21.66
2022-07-28T21:37:52.973Z,-146.85
2022-07-28T21:40:20.158Z,-146.85
2022-07-28T21:42:47.715Z,-146.85
2022-07-28T21:45:14.840Z,-146.85
2022-07-28T21:47:42.256Z,-146.85
2022-07-28T21:50:09.906Z,-146.85
2022-07-28T21:52:37.568Z,-146.85
2022-07-28T21:55:06.960Z,-146.85
2022-07-28T21:57:34.818Z,-146.85
2022-07-28T22:00:03.044Z,-146.85
2022-07-28T22:02:32.903Z,-146.85
2022-07-28T22:04:59.931Z,-146.85
2022-07-28T22:07:27.129Z,-146.85
2022-07-28T22:09:54.100Z,-146.85
2022-07-28T22:12:21.287Z,-146.85
2022-07-28T22:14:48.254Z,-146.85
2022-07-28T22:17:15.192Z,-146.85
2022-07-28T22:19:42.145Z,-146.85
2022-07-28T22:22:09.090Z,-146.85
2022-07-28T22:24:36.170Z,-146.85
2022-07-28T22:27:03.120Z,-146.85
2022-07-28T22:29:31.073Z,-146.85
2022-07-28T22:31:59.513Z,-146.85
2022-07-28T22:34:27.687Z,-146.85
2022-07-28T22:36:54.856Z,-146.85
2022-07-28T22:39:22.426Z,-146.85
2022-07-28T22:41:49.450Z,-146.85
2022-07-28T22:44:16.741Z,-146.85
2022-07-28T22:46:44.301Z,-146.85
2022-07-28T22:49:11.426Z,-146.85
2022-07-28T22:51:38.431Z,-146.85
2022-07-28T22:54:05.403Z,-146.85
2022-07-28T22:56:37.647Z,-146.85
2022-07-28T22:59:05.581Z,-146.85
2022-07-28T23:01:33.127Z,-146.85
2022-07-28T23:04:01.663Z,-146.85
2022-07-28T23:06:28.970Z,-146.85
2022-07-28T23:08:56.053Z,-146.85
2022-07-28T23:11:23.041Z,-146.85
2022-07-28T23:13:50.004Z,-146.85
2022-07-28T23:16:17.269Z,-146.85
2022-07-28T23:18:45.034Z,-146.85
2022-07-28T23:21:12.244Z,-146.85
2022-07-28T23:23:39.438Z,-146.85
2022-07-28T23:26:06.601Z,-146.85
2022-07-28T23:28:33.634Z,-146.85
2022-07-28T23:31:00.842Z,-146.85
2022-07-28T23:33:54.309Z,-146.85
2022-07-28T23:36:17.006Z,-146.85
2022-07-28T23:38:57.684Z,-146.85
2022-07-28T23:41:25.775Z,-146.85
2022-07-28T23:43:53.250Z,-146.85
2022-07-28T23:46:20.350Z,-146.85
2022-07-28T23:48:48.036Z,-146.85
2022-07-28T23:51:15.121Z,-146.85
2022-07-28T23:53:42.069Z,-146.85
2022-07-28T23:56:09.614Z,-146.85
2022-07-28T23:58:36.836Z,-146.85
